Latest Weather Observations for Fingal

IDT60801

Issued at 2:32 pm EDT Sunday 11 December 2016 (issued every 30 minutes, with the page automatically refreshed every 10 minutes)

About weather observations | Map of weather stations | Latest weather observations for TAS | Other Formats
Station Details ID: 092012 Name: FINGAL (LEGGE STREET) Lat: -41.64 Lon: 147.97 Height: 237.0 m
Data from the previous 72 hours. | See also: Recent months at Fingal
Date/Time
EDT
Temp
°C
App
Temp
°C
Dew
Point
°C
Rel
Hum
%
Delta-T
°C
Wind Press
QNH
hPa
Press
MSL
hPa
Rain since
9am
mm
Dir  Spd
km/h
Gust
km/h
Spd
kts
Gust
kts
11/02:30pm 18.2 14.4 9.0 55 4.8 NE 19 26 10 14 - - 0.0
11/02:00pm 17.6 13.3 6.8 49 5.4 NNE 19 32 10 17 - - 0.0
11/01:30pm 18.2 14.7 7.3 49 5.6 NE 15 22 8 12 - - 0.0
11/01:00pm 18.7 15.8 4.8 40 6.8 SW 9 17 5 9 - - 0.0
11/12:30pm 18.1 15.5 6.3 46 5.9 NNE 9 17 5 9 - - 0.0
11/12:00pm 18.4 15.5 4.9 41 6.6 W 9 15 5 8 - - 0.0
11/11:30am 17.6 14.0 4.9 43 6.2 NW 13 19 7 10 - - 0.0
11/11:00am 17.3 14.4 4.6 43 6.1 WNW 9 17 5 9 - - 0.0
11/10:30am 16.9 13.7 4.9 45 5.8 WNW 11 19 6 10 - - 0.0
11/10:00am 15.9 11.9 2.7 41 6.0 WSW 13 20 7 11 - - 0.0
11/09:30am 15.7 11.0 3.2 43 5.8 WSW 17 24 9 13 - - 0.0
11/09:00am 15.0 11.3 4.4 49 5.0 W 13 19 7 10 - - 0.0
11/08:30am 14.3 10.6 4.6 52 4.6 WSW 13 20 7 11 - - 0.0
11/08:00am 13.2 10.8 6.8 65 3.1 WNW 9 13 5 7 - - 0.0
11/07:30am 11.1 8.8 5.8 70 2.5 NNW 7 13 4 7 - - 0.0
11/07:00am 8.7 6.3 5.1 78 1.6 W 7 11 4 6 - - 0.0
11/06:30am 7.3 5.6 3.9 79 1.5 S 2 7 1 4 - - 0.0
11/06:00am 7.1 4.5 4.1 81 1.3 W 7 13 4 7 - - 0.0
11/05:30am 5.7 4.2 3.0 83 1.1 CALM 0 0 0 0 - - 0.0
11/05:00am 6.7 4.8 3.1 78 1.5 SE 2 6 1 3 - - 0.0
11/04:30am 8.4 6.3 3.8 73 2.0 WSW 4 7 2 4 - - 0.0
11/04:00am 9.6 7.3 4.6 71 2.3 SSW 6 9 3 5 - - 0.0
11/03:30am 9.9 7.9 4.3 68 2.5 SSW 4 11 2 6 - - 0.0
11/03:00am 10.3 8.3 4.5 67 2.6 WNW 4 7 2 4 - - 0.0
11/02:30am 11.0 8.5 3.8 61 3.2 W 6 11 3 6 - - 0.0
11/02:00am 11.9 8.8 3.4 56 3.8 SW 9 17 5 9 - - 0.0
11/01:30am 11.9 8.7 3.2 55 3.9 SSW 9 13 5 7 - - 0.0
11/01:00am 12.4 9.6 3.4 54 4.1 WSW 7 15 4 8 - - 0.0
11/12:30am 12.8 9.4 4.0 55 4.0 WSW 11 17 6 9 - - 0.0
11/12:00am 13.2 9.4 4.1 54 4.2 SSW 13 22 7 12 - - 0.0
 
Date/Time
EDT
Temp
°C
App
Temp
°C
Dew
Point
°C
Rel
Hum
%
Delta-T
°C
Wind Press
QNH
hPa
Press
MSL
hPa
Rain since
9am
mm
Dir  Spd
km/h
Gust
km/h
Spd
kts
Gust
kts
10/11:30pm 13.9 11.1 5.3 56 4.1 SW 9 17 5 9 - - 0.0
10/11:00pm 14.5 11.8 5.8 56 4.2 SSW 9 13 5 7 - - 0.0
10/10:30pm 15.5 12.2 6.2 54 4.6 SSW 13 19 7 10 - - 0.0
10/10:00pm 15.5 13.0 6.5 55 4.4 SSW 9 15 5 8 - - 0.0
10/09:30pm 15.7 13.3 7.0 56 4.3 SSW 9 15 5 8 - - 0.0
10/09:00pm 16.7 13.5 6.8 52 4.9 SSW 13 20 7 11 - - 0.0
10/08:30pm 16.7 14.4 7.6 55 4.6 S 9 17 5 9 - - 0.0
10/08:00pm 17.0 14.7 7.6 54 4.8 SSW 9 13 5 7 - - 0.0
10/07:30pm 17.7 14.8 8.0 53 5.0 SSE 13 20 7 11 - - 0.0
10/07:00pm 19.0 15.6 7.8 48 5.8 SSE 15 28 8 15 - - 0.0
10/06:30pm 19.1 17.8 9.9 55 5.0 N 7 11 4 6 - - 0.0
10/06:00pm 19.2 17.5 9.7 54 5.1 NNE 9 15 5 8 - - 0.0
10/05:30pm 18.9 17.0 10.5 58 4.6 NNE 11 19 6 10 - - 0.0
10/05:00pm 18.7 17.3 11.0 61 4.2 N 9 13 5 7 - - 0.0
10/04:30pm 19.8 17.8 8.8 49 5.8 WSW 9 19 5 10 - - 0.0
10/04:00pm 20.8 18.0 7.1 41 7.1 WSW 11 19 6 10 - - 0.0
10/03:30pm 20.6 17.8 6.9 41 7.0 SW 11 19 6 10 - - 0.0
10/03:00pm 20.9 19.1 7.9 43 6.8 SSW 7 17 4 9 - - 0.0
10/02:30pm 20.7 18.2 6.6 40 7.2 SSW 9 20 5 11 - - 0.0
10/02:00pm 20.9 17.7 6.8 40 7.2 SSW 13 20 7 11 - - 0.0
10/01:30pm 19.6 16.7 6.7 43 6.6 WNW 11 17 6 9 - - 0.0
10/01:00pm 19.4 17.1 7.5 46 6.1 NW 9 15 5 8 - - 0.0
10/12:30pm 18.5 16.5 6.4 45 6.1 NNE 6 11 3 6 - - 0.0
10/12:00pm 17.0 14.3 5.6 47 5.6 WNW 9 13 5 7 - - 0.0
10/11:30am 16.7 14.2 6.5 51 5.1 WNW 9 17 5 9 - - 0.0
10/11:00am 15.8 12.7 5.7 51 4.9 SW 11 17 6 9 - - 0.0
10/10:30am 15.3 12.7 6.1 54 4.5 WNW 9 15 5 8 - - 0.0
10/10:00am 13.4 11.3 5.8 60 3.6 NW 6 9 3 5 - - 0.0
10/09:30am 13.3 10.6 5.7 60 3.6 WSW 9 11 5 6 - - 0.0
10/09:00am 11.6 9.2 5.3 65 2.9 WNW 7 11 4 6 - - 0.0
10/08:30am 10.2 7.9 5.0 70 2.4 S 6 7 3 4 - - 0.0
10/08:00am 9.2 6.6 4.4 72 2.2 W 7 7 4 4 - - 0.0
10/07:30am 7.9 5.3 4.1 77 1.7 WSW 7 11 4 6 - - 0.0
10/07:00am 6.0 4.7 4.0 87 0.9 CALM 0 0 0 0 - - 0.0
10/06:30am 4.1 1.4 2.5 89 0.7 SE 6 9 3 5 - - 0.0
10/06:00am 3.9 1.0 2.4 90 0.6 SE 7 9 4 5 - - 0.0
10/05:30am 3.3 0.5 1.8 90 0.6 NE 6 11 3 6 - - 0.0
10/05:00am 3.4 0.5 1.6 88 0.7 S 6 9 3 5 - - 0.0
10/04:30am 3.5 1.7 1.5 87 0.8 CALM 0 6 0 3 - - 0.0
10/04:00am 3.9 1.1 1.9 87 0.8 ESE 6 9 3 5 - - 0.0
10/03:30am 4.1 2.0 1.8 85 0.9 WNW 2 7 1 4 - - 0.0
10/03:00am 4.5 2.1 2.0 84 1.0 ESE 4 7 2 4 - - 0.0
10/02:30am 5.0 2.0 2.0 81 1.2 SE 7 9 4 5 - - 0.0
10/02:00am 5.7 3.6 2.0 77 1.5 SW 2 6 1 3 - - 0.0
10/01:30am 6.5 3.7 2.2 74 1.8 ESE 6 7 3 4 - - 0.0
10/01:00am 7.3 4.0 2.2 70 2.1 NNW 9 13 5 7 - - 0.0
10/12:30am 8.1 5.7 1.9 65 2.6 SSW 4 9 2 5 - - 0.0
10/12:00am 9.7 6.3 1.6 57 3.4 SW 9 20 5 11 - - 0.0
 
Date/Time
EDT
Temp
°C
App
Temp
°C
Dew
Point
°C
Rel
Hum
%
Delta-T
°C
Wind Press
QNH
hPa
Press
MSL
hPa
Rain since
9am
mm
Dir  Spd
km/h
Gust
km/h
Spd
kts
Gust
kts
09/11:30pm 9.7 5.9 1.8 58 3.3 W 11 19 6 10 - - 0.0
09/11:00pm 10.2 6.4 1.6 55 3.6 SW 11 26 6 14 - - 0.0
09/10:30pm 10.4 5.5 1.8 55 3.7 SW 17 35 9 19 - - 0.0
09/10:00pm 10.9 6.7 1.7 53 3.9 SW 13 20 7 11 - - 0.0
09/09:30pm 11.1 6.1 1.1 50 4.2 SSW 17 24 9 13 - - 0.0
09/09:00pm 11.5 6.9 1.5 50 4.3 SW 15 26 8 14 - - 0.0
09/08:30pm 12.0 6.9 0.8 46 4.7 SW 17 30 9 16 - - 0.0
09/08:00pm 12.7 6.7 1.1 45 5.0 SW 22 33 12 18 - - 0.0
09/07:30pm 13.8 8.7 0.8 41 5.6 SW 17 32 9 17 - - 0.0
09/07:00pm 14.8 10.0 0.3 37 6.2 SW 15 28 8 15 - - 0.0
09/06:30pm 14.9 9.2 -0.8 34 6.6 SW 19 43 10 23 - - 0.0
09/06:00pm 15.7 10.1 -0.1 34 6.8 WSW 19 30 10 16 - - 0.0
09/05:30pm 15.3 9.5 -0.4 34 6.7 SW 20 32 11 17 - - 0.0
09/05:00pm 15.9 10.1 -0.3 33 6.9 SW 20 33 11 18 - - 0.0
09/04:30pm 15.5 9.6 -1.1 32 7.0 SW 20 41 11 22 - - 0.0
09/04:00pm 16.0 10.3 0.6 35 6.7 SW 20 37 11 20 - - 0.0
09/03:30pm 15.4 8.3 -1.2 32 6.9 SW 26 50 14 27 - - 0.0
09/03:00pm 15.3 9.0 -1.3 32 6.9 WSW 22 39 12 21 - - 0.0
09/02:30pm 15.8 8.7 -1.3 31 7.2 W 26 41 14 22 - - 0.0
09/02:00pm 15.1 8.3 -1.5 32 6.9 WSW 24 43 13 23 - - 0.0
09/01:43pm 14.7 7.2 -1.4 33 6.7 SW 28 54 15 29 - - 0.0
09/01:30pm 14.7 8.5 -0.2 36 6.3 SW 22 39 12 21 - - 0.0
09/01:00pm 14.2 7.2 -0.3 37 6.1 SW 26 44 14 24 - - 0.0
09/12:30pm 14.3 8.2 0.2 38 6.0 SW 22 48 12 26 - - 0.0
09/12:00pm 13.2 5.8 -0.4 39 5.7 SW 28 50 15 27 - - 0.0
09/11:30am 13.1 6.3 0.8 43 5.3 WSW 26 43 14 23 - - 0.0
09/11:00am 12.1 6.4 0.5 45 4.9 SW 20 32 11 17 - - 0.0
09/10:30am 11.1 5.3 -0.1 46 4.6 WSW 20 39 11 21 - - 0.0
09/10:00am 10.8 5.1 -0.9 44 4.7 SW 19 32 10 17 - - 0.0
09/09:30am 10.7 4.4 -0.7 45 4.6 SW 22 33 12 18 - - 0.0
09/09:00am 10.3 4.2 0.1 49 4.2 WSW 22 43 12 23 - - 17.8
09/08:30am 9.4 2.5 0.1 52 3.8 SW 26 48 14 26 - - 17.8
09/08:29am 9.4 2.0 -0.5 50 4.0 SW 28 48 15 26 - - 17.8
09/08:00am 9.5 3.0 0.4 53 3.7 SW 24 41 13 22 - - 17.8
09/07:30am 8.9 2.4 0.4 55 3.5 SW 24 43 13 23 - - 17.8
09/07:00am 8.6 1.3 0.3 56 3.4 SW 28 52 15 28 - - 17.8
09/06:58am 8.5 1.2 0.2 56 3.3 SW 28 46 15 25 - - 17.8
09/06:30am 8.8 3.1 0.8 57 3.3 SW 20 33 11 18 - - 17.8
09/06:00am 8.8 1.6 0.5 56 3.4 SW 28 46 15 25 - - 17.8
09/05:35am 9.0 1.7 0.2 54 3.6 SW 28 56 15 30 - - 17.8
09/05:30am 9.0 2.9 0.2 54 3.6 SW 22 44 12 24 - - 17.8
09/05:00am 9.2 2.0 0.6 55 3.5 SW 28 50 15 27 - - 17.8
09/04:37am 9.6 2.4 1.0 55 3.6 SW 28 48 15 26 - - 17.8
09/04:30am 9.5 3.6 1.4 57 3.4 SW 22 43 12 23 - - 17.8
09/04:00am 9.8 4.5 1.7 57 3.4 SW 19 35 10 19 - - 17.8
09/03:30am 10.0 5.1 2.1 58 3.4 SW 17 39 9 21 - - 17.8
09/03:20am 10.3 3.3 2.2 57 3.5 SW 28 48 15 26 - - 17.8
09/03:00am 10.3 4.1 2.2 57 3.5 SW 24 43 13 23 - - 17.8
09/02:30am 10.6 5.4 2.4 57 3.6 SW 19 35 10 19 - - 17.8
09/02:00am 11.2 5.6 3.3 58 3.5 SW 22 41 12 22 - - 17.8
09/01:30am 11.9 6.0 3.7 57 3.7 SW 24 37 13 20 - - 17.8
09/01:00am 12.3 7.3 4.5 59 3.6 SW 20 32 11 17 - - 17.8
09/12:30am 12.9 7.5 4.6 57 3.9 SW 22 39 12 21 - - 17.8
09/12:00am 13.4 8.2 5.6 59 3.7 WSW 22 39 12 21 - - 17.8
 
Date/Time
EDT
Temp
°C
App
Temp
°C
Dew
Point
°C
Rel
Hum
%
Delta-T
°C
Wind Press
QNH
hPa
Press
MSL
hPa
Rain since
9am
mm
Dir  Spd
km/h
Gust
km/h
Spd
kts
Gust
kts
08/11:30pm 13.9 8.3 5.3 56 4.1 W 24 46 13 25 - - 17.8
08/11:18pm 14.2 7.8 5.3 55 4.2 W 28 52 15 28 - - 17.8
08/11:00pm 14.3 10.5 5.7 56 4.1 WNW 15 30 8 16 - - 17.8
08/10:30pm 13.8 10.4 5.7 58 3.9 WNW 13 22 7 12 - - 17.8
08/10:00pm 13.6 9.8 5.7 59 3.8 W 15 24 8 13 - - 17.8
08/09:30pm 13.6 8.5 6.0 60 3.7 WNW 22 46 12 25 - - 17.8
08/09:00pm 14.3 8.0 5.7 56 4.1 NW 28 46 15 25 - - 17.8
08/08:59pm 14.2 7.9 5.8 57 4.0 NW 28 46 15 25 - - 17.8
08/08:30pm 13.9 10.4 7.2 64 3.3 NNW 15 22 8 12 - - 17.8
08/08:00pm 14.3 9.8 7.1 62 3.6 NW 20 35 11 19 - - 17.8
08/07:30pm 15.3 12.2 7.1 58 4.1 WNW 13 35 7 19 - - 17.8
08/07:00pm 15.8 13.1 7.3 57 4.3 WNW 11 33 6 18 - - 17.8
08/06:30pm 15.9 10.0 7.4 57 4.3 NNW 28 50 15 27 - - 17.8
08/06:15pm 15.9 10.0 7.7 58 4.2 NNW 28 57 15 31 - - 17.8
08/06:00pm 15.8 10.5 8.3 61 3.8 NNW 26 44 14 24 - - 17.8
08/05:30pm 16.1 10.0 8.1 59 4.1 NNW 30 50 16 27 - - 17.8
08/05:00pm 16.4 10.5 9.1 62 3.8 NNW 30 48 16 26 - - 17.8
08/04:54pm 16.5 10.8 8.5 59 4.1 NNW 28 46 15 25 - - 17.8
08/04:30pm 16.9 12.2 7.8 55 4.6 NNW 22 37 12 20 - - 17.8
08/04:00pm 17.0 11.4 7.1 52 5.0 NNW 26 65 14 35 - - 17.8
08/03:57pm 17.1 12.1 6.6 50 5.2 NW 22 65 12 35 - - 17.8
08/03:36pm 17.2 11.6 8.9 58 4.3 NNW 28 46 15 25 - - 17.8
08/03:30pm 16.8 10.7 8.2 57 4.4 NNW 30 50 16 27 - - 17.8
08/03:00pm 16.6 10.8 9.5 63 3.7 NNW 30 54 16 29 - - 17.8
08/02:55pm 17.2 12.6 11.2 68 3.3 N 26 54 14 29 - - 17.8

Other Formats:

Comma delimited format used in spreadsheet applications
http://www.bom.gov.au/fwo/IDT60801/IDT60801.95974.axf

JavaScript Object Notation format (JSON) in row-major order
http://www.bom.gov.au/fwo/IDT60801/IDT60801.95974.json